KEEN/EEN METAR and TAF weather

Enter ICAO airport designator
Station Type Date Time Source
KEEN METAR 2020/01/18 21:48 UTC NOAA

KEEN 182148Z AUTO 03003KT 1 1/2SM -SN BR SCT026 OVC031 M09/M11 A3016 RMK AO2 PRESFR P0000 FZRANO $


Station Type Date Time Source
KEEN Decoded METAR 2020/01/18 21:48 UTC NOAA

Keene, Dillant-Hopkins Airport, NH, United States (KEEN) 42-54N 072-16W
Jan 18, 2020 - 04:48 PM EST / 2020.01.18 2148 UTC
Wind: from the NNE (030 degrees) at 3 MPH (3 KT):0
Visibility: 1 1/2 mile(s):0
Sky conditions: overcast
Weather: light snow; mist
Precipitation last hour: A trace
Temperature: 15 F (-9 C)
Dew Point: 12 F (-11 C)
Relative Humidity: 85%
Pressure (altimeter): 30.16 in. Hg (1021 hPa)
Pressure tendency: falling rapidly
ob: KEEN 182148Z AUTO 03003KT 1 1/2SM -SN BR SCT026 OVC031 M09/M11 A3016 RMK AO2 PRESFR P0000 FZRANO
cycle: 22

Station Type Date Time Source
KEEN TAF UTC NOAA

Error!

Example: see airport list